createdAt,value
2023-03-02T00:01:58.564Z,16.40
2023-03-02T00:04:32.018Z,11.60
2023-03-02T00:07:05.271Z,15.80
2023-03-02T00:09:33.944Z,12.80
2023-03-02T00:12:03.380Z,16.00
2023-03-02T00:14:33.433Z,12.00
2023-03-02T00:17:02.809Z,14.60
2023-03-02T00:19:31.595Z,12.00
2023-03-02T00:22:00.549Z,11.60
2023-03-02T00:24:29.384Z,17.00
2023-03-02T00:26:58.569Z,14.00
2023-03-02T00:29:27.162Z,11.40
2023-03-02T00:31:57.564Z,16.80
2023-03-02T00:34:26.264Z,12.40
2023-03-02T00:36:55.063Z,11.80
2023-03-02T00:39:23.625Z,14.80
2023-03-02T00:41:52.753Z,16.00
2023-03-02T00:44:22.446Z,13.40
2023-03-02T00:46:51.391Z,10.40
2023-03-02T00:49:21.460Z,15.60
2023-03-02T00:51:50.384Z,17.80
2023-03-02T00:54:19.086Z,14.80
2023-03-02T00:56:47.974Z,15.60
2023-03-02T00:59:30.767Z,18.20
2023-03-02T01:02:12.941Z,18.60
2023-03-02T01:04:44.772Z,15.20
2023-03-02T01:07:15.981Z,17.40
2023-03-02T01:09:46.322Z,21.80
2023-03-02T01:12:15.501Z,15.00
2023-03-02T01:14:47.158Z,18.60
2023-03-02T01:17:16.918Z,22.00
2023-03-02T01:19:46.902Z,17.80
2023-03-02T01:22:15.821Z,10.60
2023-03-02T01:24:44.667Z,15.60
2023-03-02T01:27:13.622Z,13.60
2023-03-02T01:29:42.324Z,18.40
2023-03-02T01:32:11.890Z,24.20
2023-03-02T01:34:40.629Z,16.60
2023-03-02T01:37:10.830Z,16.80
2023-03-02T01:39:39.494Z,16.60
2023-03-02T01:42:08.492Z,10.00
2023-03-02T01:44:43.419Z,15.80
2023-03-02T01:47:20.717Z,17.60
2023-03-02T01:50:01.854Z,16.20
2023-03-02T01:52:39.004Z,22.60
2023-03-02T01:55:12.620Z,17.00
2023-03-02T01:57:47.599Z,13.40
2023-03-02T02:00:21.796Z,21.40
2023-03-02T02:02:52.597Z,20.20
2023-03-02T02:05:27.142Z,21.20
2023-03-02T02:07:57.887Z,17.20
2023-03-02T02:10:26.583Z,22.60
2023-03-02T02:12:55.444Z,19.40
2023-03-02T02:15:24.425Z,18.20
2023-03-02T02:17:54.458Z,21.80
2023-03-02T02:20:31.946Z,22.00
2023-03-02T02:23:12.938Z,17.40
2023-03-02T02:25:49.240Z,19.00
2023-03-02T02:28:23.648Z,15.80
2023-03-02T02:31:00.146Z,23.20
2023-03-02T02:33:30.551Z,16.60
2023-03-02T02:36:05.898Z,15.80
2023-03-02T02:38:36.065Z,19.80
2023-03-02T02:41:08.788Z,18.40
2023-03-02T02:43:39.075Z,18.40
2023-03-02T02:46:08.343Z,17.80
2023-03-02T02:48:37.448Z,16.20
2023-03-02T02:51:09.888Z,18.40
2023-03-02T02:53:45.299Z,21.40
2023-03-02T02:56:16.024Z,14.40
2023-03-02T02:58:51.478Z,13.80
2023-03-02T03:01:25.432Z,12.00
2023-03-02T03:03:57.587Z,17.80
2023-03-02T03:06:30.533Z,15.00
2023-03-02T03:09:01.809Z,18.40
2023-03-02T03:11:41.651Z,15.80
2023-03-02T03:14:15.395Z,15.60
2023-03-02T03:16:48.351Z,14.00
2023-03-02T03:19:21.195Z,17.20
2023-03-02T03:21:52.112Z,15.20
2023-03-02T03:24:22.904Z,17.40
2023-03-02T03:26:52.204Z,11.20
2023-03-02T03:29:24.827Z,14.60
2023-03-02T03:31:57.559Z,17.20
2023-03-02T03:34:27.714Z,15.40
2023-03-02T03:37:02.115Z,16.40
2023-03-02T03:39:35.953Z,15.60
2023-03-02T03:42:06.931Z,15.80
2023-03-02T03:44:37.525Z,17.80
2023-03-02T03:47:06.822Z,14.80
2023-03-02T03:49:35.689Z,14.40
2023-03-02T03:52:04.974Z,12.20
2023-03-02T03:54:34.367Z,14.80
2023-03-02T03:57:03.086Z,10.40
2023-03-02T03:59:32.137Z,15.00
2023-03-02T04:02:05.123Z,16.60
2023-03-02T04:04:38.409Z,14.00
2023-03-02T04:07:16.384Z,15.60
2023-03-02T04:09:46.330Z,12.40
2023-03-02T04:12:16.460Z,13.60
2023-03-02T04:14:50.363Z,13.40
2023-03-02T04:17:20.322Z,17.20
2023-03-02T04:19:51.307Z,9.80
2023-03-02T04:22:20.387Z,10.40
2023-03-02T04:24:50.667Z,11.00
2023-03-02T04:27:20.391Z,10.80
2023-03-02T04:29:49.515Z,8.60
2023-03-02T04:32:18.368Z,26.00
2023-03-02T04:34:54.277Z,14.20
2023-03-02T04:37:23.658Z,9.80
2023-03-02T04:39:53.506Z,14.20
2023-03-02T04:42:22.610Z,12.20
2023-03-02T04:44:51.546Z,10.80
2023-03-02T04:47:20.210Z,10.80
2023-03-02T04:49:50.723Z,12.60
2023-03-02T04:52:20.747Z,12.60
2023-03-02T04:54:49.517Z,16.00
2023-03-02T04:57:18.066Z,11.20
2023-03-02T04:59:46.906Z,20.20
2023-03-02T05:02:15.608Z,8.80
2023-03-02T05:04:44.587Z,10.60
2023-03-02T05:07:13.151Z,5.00
2023-03-02T05:09:43.648Z,14.00
2023-03-02T05:12:12.266Z,26.20
2023-03-02T05:14:41.187Z,30.60
2023-03-02T05:17:09.788Z,30.00
2023-03-02T05:19:39.249Z,13.40
2023-03-02T05:22:07.835Z,14.60
2023-03-02T05:24:37.427Z,15.40
2023-03-02T05:27:07.402Z,11.60
2023-03-02T05:29:36.286Z,11.80
2023-03-02T05:32:05.283Z,15.40
2023-03-02T05:34:34.307Z,14.20
2023-03-02T05:37:03.151Z,50.00
2023-03-02T05:39:32.113Z,40.20
2023-03-02T05:42:00.646Z,20.20
2023-03-02T05:44:31.052Z,13.60
2023-03-02T05:46:59.708Z,9.60
2023-03-02T05:49:28.665Z,17.20
2023-03-02T05:51:57.628Z,13.80
2023-03-02T05:54:26.551Z,12.40
2023-03-02T05:56:55.117Z,11.00
2023-03-02T05:59:24.024Z,12.40
2023-03-02T06:01:58.868Z,15.00
2023-03-02T06:04:27.917Z,14.40
2023-03-02T06:06:56.725Z,14.00
2023-03-02T06:09:25.727Z,11.80
2023-03-02T06:11:55.357Z,10.60
2023-03-02T06:14:24.288Z,17.60
2023-03-02T06:16:54.276Z,9.40
2023-03-02T06:19:23.758Z,12.00
2023-03-02T06:21:52.283Z,11.20
2023-03-02T06:24:21.567Z,11.00
2023-03-02T06:26:50.468Z,7.80
2023-03-02T06:29:19.355Z,8.60
2023-03-02T06:31:47.985Z,13.20
2023-03-02T06:34:18.306Z,10.20
2023-03-02T06:36:46.897Z,10.20
2023-03-02T06:39:16.808Z,12.80
2023-03-02T06:41:45.940Z,10.40
2023-03-02T06:44:17.216Z,10.60
2023-03-02T06:46:46.415Z,12.40
2023-03-02T06:49:15.366Z,13.20
2023-03-02T06:51:45.323Z,11.20
2023-03-02T06:54:14.216Z,10.20
2023-03-02T06:56:42.908Z,13.20
2023-03-02T06:59:11.857Z,9.40
2023-03-02T07:01:40.634Z,11.40
2023-03-02T07:04:09.590Z,7.80
2023-03-02T07:06:38.087Z,7.20
2023-03-02T07:09:08.877Z,10.00
2023-03-02T07:11:37.513Z,13.40
2023-03-02T07:14:06.578Z,11.20
2023-03-02T07:16:35.780Z,10.00
2023-03-02T07:19:04.688Z,10.60
2023-03-02T07:21:33.924Z,11.00
2023-03-02T07:24:02.982Z,11.00
2023-03-02T07:26:33.027Z,12.20
2023-03-02T07:29:02.673Z,11.20
2023-03-02T07:31:32.479Z,11.00
2023-03-02T07:34:01.605Z,10.20
2023-03-02T07:36:30.353Z,10.00
2023-03-02T07:38:59.564Z,10.00
2023-03-02T07:41:28.229Z,11.00
2023-03-02T07:43:58.870Z,11.20
2023-03-02T07:46:27.683Z,9.00
2023-03-02T07:48:59.334Z,9.60
2023-03-02T07:51:27.958Z,13.80
2023-03-02T07:53:57.161Z,10.60
2023-03-02T07:56:25.792Z,11.60
2023-03-02T07:58:54.876Z,10.00
2023-03-02T08:01:24.842Z,10.80
2023-03-02T08:03:53.897Z,11.00
2023-03-02T08:06:22.508Z,6.20
2023-03-02T08:08:51.417Z,15.60
2023-03-02T08:11:20.369Z,11.80
2023-03-02T08:13:49.536Z,16.60
2023-03-02T08:16:18.240Z,11.00
2023-03-02T08:18:48.937Z,16.80
2023-03-02T08:21:20.282Z,15.80
2023-03-02T08:23:49.858Z,20.00
2023-03-02T08:26:19.693Z,14.40
2023-03-02T08:28:48.733Z,15.40
2023-03-02T08:31:17.662Z,17.80
2023-03-02T08:33:48.293Z,17.00
2023-03-02T08:36:19.208Z,16.60
2023-03-02T08:38:49.271Z,15.40
2023-03-02T08:41:20.304Z,15.40
2023-03-02T08:43:49.879Z,16.80
2023-03-02T08:46:19.999Z,13.00
2023-03-02T08:48:51.322Z,15.20
2023-03-02T08:51:22.088Z,10.80
2023-03-02T08:53:55.215Z,11.00
2023-03-02T08:56:26.449Z,13.20
2023-03-02T08:58:56.739Z,10.60
2023-03-02T09:01:27.234Z,12.80
2023-03-02T09:03:57.949Z,14.40
2023-03-02T09:06:27.041Z,7.80
2023-03-02T09:08:56.371Z,7.20
2023-03-02T09:11:25.890Z,10.00
2023-03-02T09:13:56.321Z,10.40
2023-03-02T09:16:25.901Z,10.20
2023-03-02T09:18:55.690Z,10.00
2023-03-02T09:21:26.466Z,8.60
2023-03-02T09:23:58.120Z,9.40
2023-03-02T09:26:27.566Z,14.80
2023-03-02T09:28:57.191Z,16.80
2023-03-02T09:31:28.436Z,18.40
2023-03-02T09:33:59.072Z,25.40
2023-03-02T09:36:31.346Z,25.60
2023-03-02T09:39:00.341Z,19.20
2023-03-02T09:41:54.096Z,26.40
2023-03-02T09:44:43.903Z,29.60
2023-03-02T09:47:34.583Z,29.80
2023-03-02T09:50:26.542Z,26.60
2023-03-02T09:53:16.805Z,20.80
2023-03-02T09:55:48.662Z,22.80
2023-03-02T09:58:21.226Z,19.40
2023-03-02T10:00:52.942Z,26.80
2023-03-02T10:03:24.602Z,25.80
2023-03-02T10:05:54.730Z,24.80
2023-03-02T10:08:27.209Z,22.20
2023-03-02T10:11:06.950Z,24.80
2023-03-02T10:13:44.627Z,26.60
2023-03-02T10:16:24.792Z,29.20
2023-03-02T10:19:05.422Z,28.00
2023-03-02T10:21:40.431Z,31.20
2023-03-02T10:24:22.428Z,35.60
2023-03-02T10:26:55.435Z,28.40
2023-03-02T10:29:43.535Z,25.00
2023-03-02T10:32:20.654Z,25.40
2023-03-02T10:34:50.577Z,24.20
2023-03-02T10:37:23.067Z,24.60
2023-03-02T10:39:53.573Z,21.00
2023-03-02T10:42:27.499Z,23.20
2023-03-02T10:44:58.863Z,21.40
2023-03-02T10:47:30.120Z,23.20
2023-03-02T10:49:59.593Z,24.80
2023-03-02T10:52:29.984Z,21.60
2023-03-02T10:55:11.475Z,22.40
2023-03-02T10:57:42.057Z,22.40
2023-03-02T11:00:20.110Z,18.80
2023-03-02T11:02:53.673Z,22.20
2023-03-02T11:05:31.149Z,21.40
2023-03-02T11:08:02.074Z,25.60
2023-03-02T11:10:34.394Z,24.80
2023-03-02T11:13:07.546Z,15.60
2023-03-02T11:15:42.334Z,18.00
2023-03-02T11:18:25.712Z,24.20
2023-03-02T11:21:00.255Z,17.20
2023-03-02T11:23:37.605Z,20.20
2023-03-02T11:26:16.686Z,18.40
2023-03-02T11:28:52.632Z,22.00
2023-03-02T11:31:31.408Z,17.00
2023-03-02T11:34:25.757Z,18.20
2023-03-02T11:37:03.722Z,18.00
2023-03-02T11:39:50.024Z,17.20
2023-03-02T11:42:31.003Z,18.80
2023-03-02T11:45:04.457Z,19.00
2023-03-02T11:47:34.453Z,26.00
2023-03-02T11:50:07.975Z,19.80
2023-03-02T11:52:42.974Z,20.80
2023-03-02T11:55:18.909Z,19.40
2023-03-02T11:57:53.498Z,17.60
2023-03-02T12:00:31.641Z,19.00
2023-03-02T12:03:02.985Z,14.20
2023-03-02T12:05:36.021Z,18.00
2023-03-02T12:08:07.208Z,12.60
2023-03-02T12:10:39.076Z,13.80
2023-03-02T12:13:21.436Z,15.60
2023-03-02T12:15:52.789Z,15.60
2023-03-02T12:18:44.178Z,17.20
2023-03-02T12:21:15.864Z,12.40
2023-03-02T12:24:00.959Z,12.00
2023-03-02T12:26:35.567Z,15.80
2023-03-02T12:29:24.271Z,13.60
2023-03-02T12:31:55.529Z,9.60
2023-03-02T12:34:34.647Z,7.00
2023-03-02T12:37:09.685Z,12.60
2023-03-02T12:40:20.329Z,12.00
2023-03-02T12:42:57.721Z,9.80
2023-03-02T12:45:43.928Z,14.80
2023-03-02T12:48:26.147Z,9.60
2023-03-02T12:51:00.643Z,11.80
2023-03-02T12:53:30.652Z,12.60
2023-03-02T12:55:59.284Z,12.80
2023-03-02T12:58:30.226Z,9.00
2023-03-02T13:01:03.123Z,11.40
2023-03-02T13:03:33.202Z,11.40
2023-03-02T13:06:03.752Z,11.40
2023-03-02T13:08:34.002Z,12.40
2023-03-02T13:11:03.909Z,14.80
2023-03-02T13:13:38.104Z,11.80
2023-03-02T13:16:21.002Z,13.20
2023-03-02T13:18:53.860Z,14.60
2023-03-02T13:21:26.182Z,3.20
2023-03-02T13:23:55.216Z,16.00
2023-03-02T13:26:29.560Z,13.20
2023-03-02T13:29:03.529Z,17.40
2023-03-02T13:31:34.861Z,14.20
2023-03-02T13:34:03.785Z,13.60
2023-03-02T13:36:37.554Z,12.80
2023-03-02T13:39:09.213Z,13.60
2023-03-02T13:41:40.688Z,19.80
2023-03-02T13:44:20.531Z,16.80
2023-03-02T13:46:50.575Z,18.40
2023-03-02T13:49:28.862Z,18.20
2023-03-02T13:52:06.372Z,17.60
2023-03-02T13:54:38.609Z,23.40
2023-03-02T13:57:08.071Z,17.40
2023-03-02T13:59:37.584Z,16.40
2023-03-02T14:02:22.552Z,18.60
2023-03-02T14:04:51.537Z,21.60
2023-03-02T14:07:20.901Z,18.00
2023-03-02T14:09:50.505Z,14.00
2023-03-02T14:12:26.924Z,17.80
2023-03-02T14:14:59.518Z,22.40
2023-03-02T14:17:29.799Z,18.60
2023-03-02T14:19:58.922Z,20.80
2023-03-02T14:22:29.924Z,21.20
2023-03-02T14:24:59.015Z,23.00
2023-03-02T14:27:30.771Z,24.60
2023-03-02T14:30:00.819Z,23.60
2023-03-02T14:32:31.413Z,31.40
2023-03-02T14:35:00.386Z,27.20
2023-03-02T14:37:30.299Z,23.80
2023-03-02T14:39:59.518Z,22.00
2023-03-02T14:42:28.174Z,32.80
2023-03-02T14:44:57.185Z,24.20
2023-03-02T14:47:26.465Z,24.20
2023-03-02T14:49:56.816Z,24.40
2023-03-02T14:52:34.153Z,24.00
2023-03-02T14:55:09.169Z,26.60
2023-03-02T14:57:39.396Z,22.40
2023-03-02T15:00:14.146Z,23.60
2023-03-02T15:02:43.007Z,26.00
2023-03-02T15:05:13.617Z,29.00
2023-03-02T15:07:42.552Z,29.40
2023-03-02T15:10:15.476Z,29.20
2023-03-02T15:12:44.113Z,29.50
2023-03-02T15:15:13.768Z,30.60
2023-03-02T15:17:43.256Z,25.20
2023-03-02T15:20:16.728Z,32.00
2023-03-02T15:22:45.675Z,30.80
2023-03-02T15:25:14.687Z,31.40
2023-03-02T15:27:47.087Z,35.25
2023-03-02T15:30:16.191Z,34.50
2023-03-02T15:32:44.917Z,20.75
2023-03-02T15:35:15.522Z,43.00
2023-03-02T15:37:44.892Z,35.25
2023-03-02T15:40:14.125Z,44.25
2023-03-02T15:42:42.759Z,42.00
2023-03-02T15:45:12.784Z,40.50
2023-03-02T15:47:41.481Z,36.75
2023-03-02T15:50:12.179Z,38.75
2023-03-02T15:52:42.437Z,40.50
2023-03-02T15:55:11.546Z,35.75
2023-03-02T15:57:40.531Z,32.00
2023-03-02T16:00:11.740Z,41.25
2023-03-02T16:02:40.822Z,38.80
2023-03-02T16:05:11.693Z,34.80
2023-03-02T16:07:41.754Z,36.25
2023-03-02T16:10:15.340Z,34.50
2023-03-02T16:12:44.033Z,38.25
2023-03-02T16:15:13.314Z,42.25
2023-03-02T16:17:43.515Z,36.00
2023-03-02T16:20:14.042Z,41.40
2023-03-02T16:22:44.071Z,32.50
2023-03-02T16:25:13.296Z,44.50
2023-03-02T16:27:45.052Z,44.25
2023-03-02T16:30:15.706Z,35.25
2023-03-02T16:32:44.327Z,65.75
2023-03-02T16:35:13.191Z,42.75
2023-03-02T16:37:44.660Z,51.75
2023-03-02T16:40:14.342Z,46.25
2023-03-02T16:42:43.441Z,40.50
2023-03-02T16:45:13.270Z,47.50
2023-03-02T16:47:42.058Z,49.25
2023-03-02T16:50:12.361Z,47.75
2023-03-02T16:52:40.962Z,52.25
2023-03-02T16:55:14.690Z,54.75
2023-03-02T16:57:44.111Z,47.25
2023-03-02T17:00:16.889Z,54.25
2023-03-02T17:02:46.405Z,49.50
2023-03-02T17:05:16.598Z,48.25
2023-03-02T17:07:45.364Z,56.25
2023-03-02T17:10:19.453Z,51.00
2023-03-02T17:12:48.671Z,55.00
2023-03-02T17:15:17.744Z,59.50
2023-03-02T17:17:46.641Z,50.50
2023-03-02T17:20:16.074Z,62.75
2023-03-02T17:22:45.372Z,65.50
2023-03-02T17:25:20.104Z,66.25
2023-03-02T17:27:48.872Z,59.00
2023-03-02T17:30:18.496Z,68.25
2023-03-02T17:32:47.336Z,64.75
2023-03-02T17:35:19.381Z,73.50
2023-03-02T17:37:48.040Z,71.75
2023-03-02T17:40:18.844Z,67.50
2023-03-02T17:42:47.571Z,66.25
2023-03-02T17:45:21.631Z,59.00
2023-03-02T17:47:51.184Z,57.00
2023-03-02T17:50:20.506Z,61.50
2023-03-02T17:52:49.133Z,58.25
2023-03-02T17:55:19.548Z,66.75
2023-03-02T17:57:48.367Z,58.50
2023-03-02T18:00:24.168Z,59.75
2023-03-02T18:02:54.026Z,63.50
2023-03-02T18:05:23.315Z,59.50
2023-03-02T18:07:54.722Z,61.00
2023-03-02T18:10:26.307Z,61.75
2023-03-02T18:12:57.098Z,65.25
2023-03-02T18:15:28.613Z,60.25
2023-03-02T18:17:57.460Z,58.75
2023-03-02T18:20:26.492Z,53.50
2023-03-02T18:22:55.108Z,53.25
2023-03-02T18:25:24.133Z,65.25
2023-03-02T18:27:54.188Z,54.00
2023-03-02T18:30:23.966Z,41.25
2023-03-02T18:32:52.496Z,59.00
2023-03-02T18:35:22.108Z,62.25
2023-03-02T18:37:51.937Z,59.50
2023-03-02T18:40:21.065Z,53.25
2023-03-02T18:42:50.039Z,58.50
2023-03-02T18:45:25.579Z,64.25
2023-03-02T18:47:54.180Z,62.50
2023-03-02T18:50:24.279Z,73.00
2023-03-02T18:52:53.874Z,53.25
2023-03-02T18:55:24.198Z,57.50
2023-03-02T18:57:54.004Z,62.50
2023-03-02T19:00:28.333Z,65.75
2023-03-02T19:02:57.078Z,60.75
2023-03-02T19:05:29.702Z,64.00
2023-03-02T19:07:59.069Z,59.75
2023-03-02T19:10:28.097Z,63.75
2023-03-02T19:12:56.945Z,67.25
2023-03-02T19:15:27.335Z,58.00
2023-03-02T19:17:57.274Z,61.25
2023-03-02T19:20:27.313Z,60.50
2023-03-02T19:22:56.038Z,61.00
2023-03-02T19:25:24.896Z,51.00
2023-03-02T19:27:53.546Z,47.00
2023-03-02T19:30:27.135Z,66.00
2023-03-02T19:32:57.133Z,58.50
2023-03-02T19:35:27.849Z,54.50
2023-03-02T19:37:57.051Z,66.50
2023-03-02T19:40:29.293Z,65.00
2023-03-02T19:42:58.398Z,61.50
2023-03-02T19:45:29.651Z,55.50
2023-03-02T19:48:01.876Z,61.00
2023-03-02T19:50:31.198Z,65.00
2023-03-02T19:53:00.489Z,46.50
2023-03-02T19:55:29.650Z,63.25
2023-03-02T19:58:00.204Z,52.50
2023-03-02T20:00:31.703Z,57.25
2023-03-02T20:03:02.015Z,59.00
2023-03-02T20:05:31.836Z,60.00
2023-03-02T20:08:00.485Z,60.75
2023-03-02T20:10:32.627Z,61.25
2023-03-02T20:13:01.831Z,57.25
2023-03-02T20:15:32.554Z,62.25
2023-03-02T20:18:03.691Z,64.75
2023-03-02T20:20:33.001Z,59.50
2023-03-02T20:23:02.037Z,57.25
2023-03-02T20:25:32.484Z,57.50
2023-03-02T20:28:05.685Z,54.50
2023-03-02T20:30:38.875Z,62.25
2023-03-02T20:33:10.354Z,61.00
2023-03-02T20:35:45.730Z,54.25
2023-03-02T20:38:20.011Z,61.50
2023-03-02T20:40:49.076Z,59.75
2023-03-02T20:43:17.835Z,59.50
2023-03-02T20:45:47.082Z,55.50
2023-03-02T20:48:17.411Z,60.50
2023-03-02T20:50:46.455Z,45.25
2023-03-02T20:53:15.476Z,60.00
2023-03-02T20:55:44.902Z,59.00
2023-03-02T20:58:14.157Z,61.25
2023-03-02T21:00:43.242Z,63.25
2023-03-02T21:03:11.910Z,61.25
2023-03-02T21:05:43.990Z,61.25
2023-03-02T21:08:14.953Z,61.50
2023-03-02T21:10:44.811Z,59.75
2023-03-02T21:13:13.596Z,61.50
2023-03-02T21:15:43.084Z,63.75
2023-03-02T21:18:11.778Z,62.50
2023-03-02T21:20:42.078Z,57.50
2023-03-02T21:23:11.153Z,53.25
2023-03-02T21:25:42.284Z,60.00
2023-03-02T21:28:11.122Z,56.75
2023-03-02T21:30:40.039Z,59.00
2023-03-02T21:33:08.568Z,58.00
2023-03-02T21:35:37.547Z,59.25
2023-03-02T21:38:07.828Z,58.75
2023-03-02T21:40:40.851Z,62.25
2023-03-02T21:43:10.102Z,60.50
2023-03-02T21:45:39.104Z,58.75
2023-03-02T21:48:08.385Z,60.00
2023-03-02T21:50:39.543Z,64.00
2023-03-02T21:53:09.554Z,27.00
2023-03-02T21:55:38.999Z,57.75
2023-03-02T21:58:07.928Z,55.50
2023-03-02T22:00:38.882Z,61.00
2023-03-02T22:03:07.973Z,60.25
2023-03-02T22:05:37.110Z,55.75
2023-03-02T22:08:06.163Z,59.25
2023-03-02T22:10:41.512Z,58.00
2023-03-02T22:13:20.532Z,57.50
2023-03-02T22:15:51.285Z,51.75
2023-03-02T22:18:21.495Z,53.50
2023-03-02T22:20:52.348Z,53.50
2023-03-02T22:23:25.176Z,55.25
2023-03-02T22:26:02.063Z,53.75
2023-03-02T22:28:30.744Z,53.75
2023-03-02T22:31:01.663Z,57.00
2023-03-02T22:33:30.704Z,55.50
2023-03-02T22:36:03.955Z,52.50
2023-03-02T22:38:32.816Z,56.00
2023-03-02T22:41:04.767Z,51.50
2023-03-02T22:43:36.216Z,51.25
2023-03-02T22:46:15.470Z,48.75
2023-03-02T22:48:46.244Z,52.50
2023-03-02T22:51:17.438Z,57.25
2023-03-02T22:53:51.816Z,57.50
2023-03-02T22:56:29.898Z,52.75
2023-03-02T22:59:02.846Z,43.25
2023-03-02T23:01:41.083Z,50.75
2023-03-02T23:04:20.173Z,46.75
2023-03-02T23:06:50.959Z,48.00
2023-03-02T23:09:22.898Z,41.50
2023-03-02T23:11:55.977Z,37.75
2023-03-02T23:14:27.208Z,44.25
2023-03-02T23:17:00.233Z,50.50
2023-03-02T23:19:30.322Z,52.00
2023-03-02T23:22:00.645Z,52.00
2023-03-02T23:24:29.166Z,45.00
2023-03-02T23:26:59.383Z,47.75
2023-03-02T23:29:28.126Z,52.75
2023-03-02T23:31:57.394Z,54.25
2023-03-02T23:34:26.200Z,49.50
2023-03-02T23:36:55.122Z,33.50
2023-03-02T23:39:23.747Z,50.25
2023-03-02T23:41:52.733Z,50.75
2023-03-02T23:44:22.967Z,45.25
2023-03-02T23:46:52.138Z,51.00
2023-03-02T23:49:21.009Z,46.25
2023-03-02T23:51:49.999Z,38.25
2023-03-02T23:54:18.622Z,45.50
2023-03-02T23:56:47.510Z,44.75
2023-03-02T23:59:16.063Z,48.50
